createdAt,value
2023-02-02T00:03:32.277Z,68
2023-02-02T00:13:32.217Z,68
2023-02-02T00:23:32.193Z,68
2023-02-02T00:33:32.181Z,68
2023-02-02T00:43:32.639Z,68
2023-02-02T00:53:32.186Z,68
2023-02-02T01:03:32.603Z,68
2023-02-02T01:13:34.077Z,68
2023-02-02T01:23:32.150Z,68
2023-02-02T01:33:37.195Z,68
2023-02-02T01:43:32.557Z,68
2023-02-02T01:53:32.153Z,68
2023-02-02T02:03:32.134Z,68
2023-02-02T02:13:32.114Z,68
2023-02-02T02:23:32.103Z,68
2023-02-02T02:33:32.105Z,68
2023-02-02T02:43:32.076Z,68
2023-02-02T02:53:32.160Z,68
2023-02-02T03:03:32.099Z,69
2023-02-02T03:13:32.098Z,69
2023-02-02T03:23:32.472Z,69
2023-02-02T03:33:32.079Z,70
2023-02-02T03:43:32.048Z,70
2023-02-02T03:53:32.041Z,70
2023-02-02T04:03:37.092Z,71
2023-02-02T04:13:32.029Z,71
2023-02-02T04:23:32.062Z,71
2023-02-02T04:33:32.033Z,71
2023-02-02T04:43:32.019Z,71
2023-02-02T04:53:32.012Z,71
2023-02-02T05:03:37.058Z,71
2023-02-02T05:13:32.184Z,71
2023-02-02T05:23:31.993Z,71
2023-02-02T05:33:31.982Z,72
2023-02-02T05:43:32.030Z,72
2023-02-02T05:53:31.992Z,72
2023-02-02T06:03:37.142Z,72
2023-02-02T06:13:31.967Z,72
2023-02-02T06:23:31.951Z,72
2023-02-02T06:33:31.947Z,72
2023-02-02T06:43:36.975Z,72
2023-02-02T06:53:32.207Z,72
2023-02-02T07:03:31.955Z,72
2023-02-02T07:13:31.917Z,72
2023-02-02T07:23:31.917Z,73
2023-02-02T07:33:31.893Z,73
2023-02-02T07:43:31.908Z,73
2023-02-02T07:53:32.324Z,73
2023-02-02T08:03:36.942Z,72
2023-02-02T08:13:31.968Z,71
2023-02-02T08:23:31.855Z,70
2023-02-02T08:33:31.880Z,69
2023-02-02T08:43:32.257Z,68
2023-02-02T08:53:31.839Z,67
2023-02-02T09:03:31.821Z,65
2023-02-02T09:13:31.806Z,64
2023-02-02T09:23:31.819Z,63
2023-02-02T09:33:31.793Z,61
2023-02-02T09:43:31.780Z,60
2023-02-02T09:53:31.777Z,59
2023-02-02T10:03:31.847Z,58
2023-02-02T10:13:31.754Z,56
2023-02-02T10:23:32.138Z,56
2023-02-02T10:33:32.128Z,56
2023-02-02T10:43:31.696Z,55
2023-02-02T10:53:32.083Z,54
2023-02-02T11:03:31.692Z,53
2023-02-02T11:13:31.680Z,52
2023-02-02T11:23:31.613Z,52
2023-02-02T11:33:31.620Z,51
2023-02-02T11:43:31.591Z,50
2023-02-02T11:53:31.594Z,49
2023-02-02T12:03:31.546Z,48
2023-02-02T12:13:31.551Z,46
2023-02-02T12:23:31.536Z,46
2023-02-02T12:33:31.522Z,47
2023-02-02T12:43:31.502Z,48
2023-02-02T12:53:31.508Z,49
2023-02-02T13:03:31.475Z,50
2023-02-02T13:13:31.487Z,49
2023-02-02T13:23:31.449Z,48
2023-02-02T13:33:31.419Z,47
2023-02-02T13:43:31.407Z,48
2023-02-02T13:53:31.411Z,46
2023-02-02T14:03:31.385Z,46
2023-02-02T14:13:31.400Z,47
2023-02-02T14:23:31.353Z,48
2023-02-02T14:33:31.364Z,48
2023-02-02T14:43:31.331Z,49
2023-02-02T14:53:31.304Z,49
2023-02-02T15:03:31.315Z,50
2023-02-02T15:13:31.729Z,50
2023-02-02T15:23:31.295Z,51
2023-02-02T15:33:31.306Z,52
2023-02-02T15:43:31.683Z,51
2023-02-02T15:53:31.259Z,52
2023-02-02T16:03:31.678Z,53
2023-02-02T16:13:31.210Z,54
2023-02-02T16:23:31.237Z,55
2023-02-02T16:33:31.214Z,56
2023-02-02T16:43:31.180Z,57
2023-02-02T16:53:31.207Z,58
2023-02-02T17:03:31.158Z,58
2023-02-02T17:13:31.169Z,58
2023-02-02T17:23:31.160Z,59
2023-02-02T17:33:34.010Z,60
2023-02-02T17:43:31.113Z,60
2023-02-02T17:53:33.182Z,60
2023-02-02T18:03:33.730Z,60
2023-02-02T18:13:31.082Z,61
2023-02-02T18:23:31.086Z,61
2023-02-02T18:33:31.494Z,61
2023-02-02T18:43:31.072Z,61
2023-02-02T18:53:31.076Z,61
2023-02-02T19:03:31.086Z,61
2023-02-02T19:13:31.447Z,61
2023-02-02T19:23:31.064Z,61
2023-02-02T19:33:31.015Z,61
2023-02-02T19:43:31.015Z,61
2023-02-02T19:53:31.002Z,61
2023-02-02T20:03:30.995Z,61
2023-02-02T20:13:30.959Z,61
2023-02-02T20:23:31.392Z,61
2023-02-02T20:33:30.972Z,61
2023-02-02T20:43:31.369Z,61
2023-02-02T20:53:30.955Z,61
2023-02-02T21:03:30.929Z,61
2023-02-02T21:13:31.358Z,61
2023-02-02T21:23:30.932Z,61
2023-02-02T21:33:30.883Z,62
2023-02-02T21:43:30.882Z,62
2023-02-02T21:53:30.877Z,62
2023-02-02T22:03:30.915Z,62
2023-02-02T22:13:31.281Z,62
2023-02-02T22:23:30.844Z,62
2023-02-02T22:33:30.838Z,63
2023-02-02T22:43:30.849Z,63
2023-02-02T22:53:30.840Z,64
2023-02-02T23:03:30.857Z,64
2023-02-02T23:13:30.811Z,64
2023-02-02T23:23:30.801Z,64
2023-02-02T23:33:30.776Z,64
2023-02-02T23:43:30.787Z,65
2023-02-02T23:53:30.763Z,65
